Anzegem, Belgium
Current Conditions -  °F | °C
As of 4:25 AM on Wednesday 22 Oct 2014 (Local Time) from EBCV Reporting Station
Clear Clear  
Wind Chill: 38°   Ceiling: Unl
Heat Index: 45°   Visibility: 6mi
Dew Point: 37°   Wind: 14mph
Humidity: 76%   Direction: 290°WNW
Pressure: 30.09"   Gusts: NA
Location:  50.84°N, 3.48°E
Report Text: EBCV 220225Z AUTO 29012KT 9999 NCD 07/03 Q1019 BLU
Loading
Personal Weather Stations






























Interactive Weather Map
Tropical Storm Tracking
New forecast layout! Learn more

10-Day Weather Forecast

Advertisements
Track Severe Weather on mobile